Southsea, United Kingdom
Current Conditions -  °F | °C
As of 2:50 PM on Tuesday 21 Oct 2014 (Local Time) from EGHI Reporting Station
Scattered Clouds Scattered Clouds  
Wind Chill: 55°   Ceiling: Unl
Heat Index: 55°   Visibility: 6mi
Dew Point: 37°   Wind: 18mph
Humidity: 51%   Direction: 280°W
Pressure: 29.85"   Gusts: 33mph
Location:  50.79°N, 1.07°W
Report Text: EGHI 211350Z 28016G29KT 220V320 9999 SCT048 13/03 Q1011
Loading
Personal Weather Stations






























Interactive Weather Map
Tropical Storm Tracking
New forecast layout! Learn more

10-Day Weather Forecast

Advertisements
Track Severe Weather on mobile